KBEH/BEH METAR and TAF weather

Enter ICAO airport designator
Station Type Date Time Source
KBEH METAR 2021/05/12 00:53 UTC NOAA

KBEH 120053Z AUTO 00000KT 10SM CLR 07/01 A3036 RMK AO2 SLP283 T00670006


Station Type Date Time Source
KBEH Decoded METAR 2021/05/12 00:53 UTC NOAA

SOUTHWEST MICHIGAN REGIONAL, MI, United States (KBEH) 42-08N 86-25W 191M
May 11, 2021 - 08:53 PM EDT / 2021.05.12 0053 UTC
Wind: Calm:0
Visibility: 10 mile(s):0
Sky conditions: clear
Temperature: 44.1 F (6.7 C)
Dew Point: 33.1 F (0.6 C)
Relative Humidity: 65%
Pressure (altimeter): 30.36 in. Hg (1028 hPa)
ob: KBEH 120053Z AUTO 00000KT 10SM CLR 07/01 A3036 RMK AO2 SLP283 T00670006
cycle: 1

Station Type Date Time Source
KBEH TAF UTC NOAA

Error!

Example: see airport list